sensor_id;sensor_type;location;lat;lon;timestamp;P1;durP1;ratioP1;P2;durP2;ratioP2
14611;SDS011;7392;52.078;11.650;2023-07-24T00:00:39;1.40;;;1.30;;
14611;SDS011;7392;52.078;11.650;2023-07-24T00:03:07;1.30;;;1.20;;
14611;SDS011;7392;52.078;11.650;2023-07-24T00:05:35;1.20;;;1.10;;
14611;SDS011;7392;52.078;11.650;2023-07-24T00:08:03;1.17;;;1.07;;
14611;SDS011;7392;52.078;11.650;2023-07-24T00:10:33;1.43;;;1.30;;
14611;SDS011;7392;52.078;11.650;2023-07-24T00:13:00;1.20;;;1.10;;
14611;SDS011;7392;52.078;11.650;2023-07-24T00:15:31;1.57;;;1.30;;
14611;SDS011;7392;52.078;11.650;2023-07-24T00:17:58;1.20;;;1.10;;
14611;SDS011;7392;52.078;11.650;2023-07-24T00:20:26;1.53;;;1.20;;
14611;SDS011;7392;52.078;11.650;2023-07-24T00:22:54;1.67;;;1.20;;
14611;SDS011;7392;52.078;11.650;2023-07-24T00:25:21;1.30;;;1.20;;
14611;SDS011;7392;52.078;11.650;2023-07-24T00:27:49;1.13;;;1.03;;
14611;SDS011;7392;52.078;11.650;2023-07-24T00:30:17;2.47;;;1.27;;
14611;SDS011;7392;52.078;11.650;2023-07-24T00:32:46;1.70;;;1.20;;
14611;SDS011;7392;52.078;11.650;2023-07-24T00:35:15;1.43;;;1.23;;
14611;SDS011;7392;52.078;11.650;2023-07-24T00:37:43;1.87;;;1.20;;
14611;SDS011;7392;52.078;11.650;2023-07-24T00:40:11;1.27;;;1.17;;
14611;SDS011;7392;52.078;11.650;2023-07-24T00:42:39;1.30;;;1.20;;
14611;SDS011;7392;52.078;11.650;2023-07-24T00:45:07;1.40;;;1.30;;
14611;SDS011;7392;52.078;11.650;2023-07-24T00:47:36;1.40;;;1.20;;
14611;SDS011;7392;52.078;11.650;2023-07-24T00:50:06;1.20;;;1.10;;
14611;SDS011;7392;52.078;11.650;2023-07-24T00:52:34;1.33;;;1.23;;
14611;SDS011;7392;52.078;11.650;2023-07-24T00:55:03;1.60;;;1.50;;
14611;SDS011;7392;52.078;11.650;2023-07-24T00:57:31;1.20;;;1.10;;
14611;SDS011;7392;52.078;11.650;2023-07-24T00:59:59;1.70;;;1.30;;
14611;SDS011;7392;52.078;11.650;2023-07-24T01:02:27;1.13;;;1.03;;
14611;SDS011;7392;52.078;11.650;2023-07-24T01:04:55;0.90;;;0.90;;
14611;SDS011;7392;52.078;11.650;2023-07-24T01:07:24;1.10;;;1.00;;
14611;SDS011;7392;52.078;11.650;2023-07-24T01:09:52;1.20;;;1.10;;
14611;SDS011;7392;52.078;11.650;2023-07-24T01:12:22;1.30;;;1.20;;
14611;SDS011;7392;52.078;11.650;2023-07-24T01:14:58;1.40;;;0.80;;
14611;SDS011;7392;52.078;11.650;2023-07-24T01:17:33;1.03;;;0.90;;
14611;SDS011;7392;52.078;11.650;2023-07-24T01:20:09;0.80;;;0.80;;
14611;SDS011;7392;52.078;11.650;2023-07-24T01:22:43;1.10;;;1.00;;
14611;SDS011;7392;52.078;11.650;2023-07-24T01:25:23;1.00;;;0.90;;
14611;SDS011;7392;52.078;11.650;2023-07-24T01:27:59;1.10;;;0.97;;
14611;SDS011;7392;52.078;11.650;2023-07-24T01:30:27;2.70;;;0.90;;
14611;SDS011;7392;52.078;11.650;2023-07-24T01:32:55;0.73;;;0.73;;
14611;SDS011;7392;52.078;11.650;2023-07-24T01:35:23;0.90;;;0.90;;
14611;SDS011;7392;52.078;11.650;2023-07-24T01:37:54;0.97;;;0.90;;
14611;SDS011;7392;52.078;11.650;2023-07-24T01:40:23;0.80;;;0.80;;
14611;SDS011;7392;52.078;11.650;2023-07-24T01:42:51;0.70;;;0.70;;
14611;SDS011;7392;52.078;11.650;2023-07-24T01:45:21;0.80;;;0.80;;
14611;SDS011;7392;52.078;11.650;2023-07-24T01:47:48;0.70;;;0.70;;
14611;SDS011;7392;52.078;11.650;2023-07-24T01:50:16;0.80;;;0.73;;
14611;SDS011;7392;52.078;11.650;2023-07-24T01:52:44;0.97;;;0.70;;
14611;SDS011;7392;52.078;11.650;2023-07-24T01:55:12;1.13;;;0.80;;
14611;SDS011;7392;52.078;11.650;2023-07-24T01:57:40;0.70;;;0.70;;
14611;SDS011;7392;52.078;11.650;2023-07-24T02:00:08;0.80;;;0.80;;
14611;SDS011;7392;52.078;11.650;2023-07-24T02:02:38;1.87;;;0.80;;
14611;SDS011;7392;52.078;11.650;2023-07-24T02:05:06;0.70;;;0.70;;
14611;SDS011;7392;52.078;11.650;2023-07-24T02:07:35;0.80;;;0.80;;
14611;SDS011;7392;52.078;11.650;2023-07-24T02:10:03;0.90;;;0.90;;
14611;SDS011;7392;52.078;11.650;2023-07-24T02:12:31;0.67;;;0.67;;
14611;SDS011;7392;52.078;11.650;2023-07-24T02:14:59;0.90;;;0.80;;
14611;SDS011;7392;52.078;11.650;2023-07-24T02:17:26;0.70;;;0.70;;
14611;SDS011;7392;52.078;11.650;2023-07-24T02:19:56;0.80;;;0.80;;
14611;SDS011;7392;52.078;11.650;2023-07-24T02:22:23;0.70;;;0.70;;
14611;SDS011;7392;52.078;11.650;2023-07-24T02:24:51;0.80;;;0.80;;
14611;SDS011;7392;52.078;11.650;2023-07-24T02:27:25;0.80;;;0.80;;
14611;SDS011;7392;52.078;11.650;2023-07-24T02:29:57;0.83;;;0.77;;
14611;SDS011;7392;52.078;11.650;2023-07-24T02:32:25;0.70;;;0.70;;
14611;SDS011;7392;52.078;11.650;2023-07-24T02:34:53;1.00;;;0.90;;
14611;SDS011;7392;52.078;11.650;2023-07-24T02:37:22;0.80;;;0.80;;
14611;SDS011;7392;52.078;11.650;2023-07-24T02:39:51;0.97;;;0.70;;
14611;SDS011;7392;52.078;11.650;2023-07-24T02:42:19;1.20;;;1.10;;
14611;SDS011;7392;52.078;11.650;2023-07-24T02:44:47;1.10;;;1.00;;
14611;SDS011;7392;52.078;11.650;2023-07-24T02:47:14;1.60;;;0.97;;
14611;SDS011;7392;52.078;11.650;2023-07-24T02:49:43;1.20;;;1.10;;
14611;SDS011;7392;52.078;11.650;2023-07-24T02:52:11;1.00;;;0.90;;
14611;SDS011;7392;52.078;11.650;2023-07-24T02:54:40;1.40;;;1.00;;
14611;SDS011;7392;52.078;11.650;2023-07-24T02:57:07;1.37;;;1.20;;
14611;SDS011;7392;52.078;11.650;2023-07-24T02:59:35;1.03;;;0.93;;
14611;SDS011;7392;52.078;11.650;2023-07-24T03:02:03;0.80;;;0.80;;
14611;SDS011;7392;52.078;11.650;2023-07-24T03:04:31;0.90;;;0.90;;
14611;SDS011;7392;52.078;11.650;2023-07-24T03:06:59;1.10;;;0.90;;
14611;SDS011;7392;52.078;11.650;2023-07-24T03:09:27;0.80;;;0.80;;
14611;SDS011;7392;52.078;11.650;2023-07-24T03:11:56;0.80;;;0.80;;
14611;SDS011;7392;52.078;11.650;2023-07-24T03:14:24;1.10;;;1.00;;
14611;SDS011;7392;52.078;11.650;2023-07-24T03:16:52;1.00;;;0.90;;
14611;SDS011;7392;52.078;11.650;2023-07-24T03:19:20;1.17;;;0.90;;
14611;SDS011;7392;52.078;11.650;2023-07-24T03:21:48;1.00;;;0.90;;
14611;SDS011;7392;52.078;11.650;2023-07-24T03:24:15;1.03;;;0.93;;
14611;SDS011;7392;52.078;11.650;2023-07-24T03:26:43;1.00;;;1.00;;
14611;SDS011;7392;52.078;11.650;2023-07-24T03:29:12;0.77;;;0.77;;
14611;SDS011;7392;52.078;11.650;2023-07-24T03:31:40;1.10;;;1.00;;
14611;SDS011;7392;52.078;11.650;2023-07-24T03:34:08;0.90;;;0.90;;
14611;SDS011;7392;52.078;11.650;2023-07-24T03:36:36;1.00;;;0.83;;
14611;SDS011;7392;52.078;11.650;2023-07-24T03:39:09;0.90;;;0.90;;
14611;SDS011;7392;52.078;11.650;2023-07-24T03:41:37;1.07;;;0.97;;
14611;SDS011;7392;52.078;11.650;2023-07-24T03:44:05;1.13;;;0.90;;
14611;SDS011;7392;52.078;11.650;2023-07-24T03:46:35;1.53;;;0.80;;
14611;SDS011;7392;52.078;11.650;2023-07-24T03:49:02;0.73;;;0.63;;
14611;SDS011;7392;52.078;11.650;2023-07-24T03:51:30;0.70;;;0.70;;
14611;SDS011;7392;52.078;11.650;2023-07-24T03:53:59;0.80;;;0.80;;
14611;SDS011;7392;52.078;11.650;2023-07-24T03:56:27;0.80;;;0.80;;
14611;SDS011;7392;52.078;11.650;2023-07-24T03:58:55;0.90;;;0.90;;
14611;SDS011;7392;52.078;11.650;2023-07-24T04:01:22;1.30;;;1.10;;
14611;SDS011;7392;52.078;11.650;2023-07-24T04:03:52;0.83;;;0.83;;
14611;SDS011;7392;52.078;11.650;2023-07-24T04:06:20;1.23;;;1.13;;
14611;SDS011;7392;52.078;11.650;2023-07-24T04:08:47;1.00;;;0.90;;
14611;SDS011;7392;52.078;11.650;2023-07-24T04:11:15;1.10;;;0.90;;
14611;SDS011;7392;52.078;11.650;2023-07-24T04:13:43;1.33;;;0.90;;
14611;SDS011;7392;52.078;11.650;2023-07-24T04:16:10;1.50;;;1.10;;
14611;SDS011;7392;52.078;11.650;2023-07-24T04:18:38;0.80;;;0.80;;
14611;SDS011;7392;52.078;11.650;2023-07-24T04:21:07;0.73;;;0.73;;
14611;SDS011;7392;52.078;11.650;2023-07-24T04:23:35;0.90;;;0.90;;
14611;SDS011;7392;52.078;11.650;2023-07-24T04:26:03;1.10;;;1.00;;
14611;SDS011;7392;52.078;11.650;2023-07-24T04:28:31;1.67;;;1.20;;
14611;SDS011;7392;52.078;11.650;2023-07-24T04:30:59;1.10;;;1.00;;
14611;SDS011;7392;52.078;11.650;2023-07-24T04:33:27;1.23;;;1.13;;
14611;SDS011;7392;52.078;11.650;2023-07-24T04:35:56;0.80;;;0.80;;
14611;SDS011;7392;52.078;11.650;2023-07-24T04:38:25;1.87;;;1.07;;
14611;SDS011;7392;52.078;11.650;2023-07-24T04:40:53;1.30;;;1.20;;
14611;SDS011;7392;52.078;11.650;2023-07-24T04:43:21;1.10;;;0.93;;
14611;SDS011;7392;52.078;11.650;2023-07-24T04:45:49;0.90;;;0.90;;
14611;SDS011;7392;52.078;11.650;2023-07-24T04:48:17;1.10;;;0.97;;
14611;SDS011;7392;52.078;11.650;2023-07-24T04:50:44;0.90;;;0.90;;
14611;SDS011;7392;52.078;11.650;2023-07-24T04:53:12;1.43;;;1.10;;
14611;SDS011;7392;52.078;11.650;2023-07-24T04:55:41;1.20;;;1.10;;
14611;SDS011;7392;52.078;11.650;2023-07-24T04:58:09;1.80;;;1.20;;
14611;SDS011;7392;52.078;11.650;2023-07-24T05:00:36;1.20;;;1.10;;
14611;SDS011;7392;52.078;11.650;2023-07-24T05:03:04;1.27;;;1.17;;
14611;SDS011;7392;52.078;11.650;2023-07-24T05:05:33;1.13;;;1.03;;
14611;SDS011;7392;52.078;11.650;2023-07-24T05:08:00;1.60;;;1.33;;
14611;SDS011;7392;52.078;11.650;2023-07-24T05:10:28;1.50;;;1.40;;
14611;SDS011;7392;52.078;11.650;2023-07-24T05:12:57;1.40;;;1.30;;
14611;SDS011;7392;52.078;11.650;2023-07-24T05:15:27;1.40;;;1.30;;
14611;SDS011;7392;52.078;11.650;2023-07-24T05:17:55;1.30;;;1.20;;
14611;SDS011;7392;52.078;11.650;2023-07-24T05:20:23;2.53;;;1.57;;
14611;SDS011;7392;52.078;11.650;2023-07-24T05:22:50;1.30;;;1.20;;
14611;SDS011;7392;52.078;11.650;2023-07-24T05:25:18;1.40;;;1.27;;
14611;SDS011;7392;52.078;11.650;2023-07-24T05:27:46;1.40;;;1.30;;
14611;SDS011;7392;52.078;11.650;2023-07-24T05:30:15;2.53;;;1.57;;
14611;SDS011;7392;52.078;11.650;2023-07-24T05:32:43;1.93;;;1.50;;
14611;SDS011;7392;52.078;11.650;2023-07-24T05:35:11;2.27;;;1.40;;
14611;SDS011;7392;52.078;11.650;2023-07-24T05:37:38;1.63;;;1.27;;
14611;SDS011;7392;52.078;11.650;2023-07-24T05:40:06;1.60;;;1.50;;
14611;SDS011;7392;52.078;11.650;2023-07-24T05:42:35;1.97;;;1.50;;
14611;SDS011;7392;52.078;11.650;2023-07-24T05:45:07;1.47;;;1.37;;
14611;SDS011;7392;52.078;11.650;2023-07-24T05:47:38;1.50;;;1.40;;
14611;SDS011;7392;52.078;11.650;2023-07-24T05:50:06;1.57;;;1.30;;
14611;SDS011;7392;52.078;11.650;2023-07-24T05:52:35;2.10;;;1.90;;
14611;SDS011;7392;52.078;11.650;2023-07-24T05:55:03;2.73;;;1.43;;
14611;SDS011;7392;52.078;11.650;2023-07-24T05:57:31;1.70;;;1.50;;
14611;SDS011;7392;52.078;11.650;2023-07-24T05:59:59;2.17;;;1.70;;
14611;SDS011;7392;52.078;11.650;2023-07-24T06:02:27;1.90;;;1.60;;
14611;SDS011;7392;52.078;11.650;2023-07-24T06:04:56;1.97;;;1.63;;
14611;SDS011;7392;52.078;11.650;2023-07-24T06:07:24;1.53;;;1.43;;
14611;SDS011;7392;52.078;11.650;2023-07-24T06:09:51;1.50;;;1.37;;
14611;SDS011;7392;52.078;11.650;2023-07-24T06:12:19;1.70;;;1.40;;
14611;SDS011;7392;52.078;11.650;2023-07-24T06:14:47;1.90;;;1.70;;
14611;SDS011;7392;52.078;11.650;2023-07-24T06:17:14;1.60;;;1.50;;
14611;SDS011;7392;52.078;11.650;2023-07-24T06:19:42;2.17;;;1.97;;
14611;SDS011;7392;52.078;11.650;2023-07-24T06:22:11;1.77;;;1.67;;
14611;SDS011;7392;52.078;11.650;2023-07-24T06:24:39;1.63;;;1.40;;
14611;SDS011;7392;52.078;11.650;2023-07-24T06:27:07;2.23;;;1.60;;
14611;SDS011;7392;52.078;11.650;2023-07-24T06:29:35;1.50;;;1.40;;
14611;SDS011;7392;52.078;11.650;2023-07-24T06:32:05;1.60;;;1.50;;
14611;SDS011;7392;52.078;11.650;2023-07-24T06:34:33;1.97;;;1.60;;
14611;SDS011;7392;52.078;11.650;2023-07-24T06:37:01;1.70;;;1.60;;
14611;SDS011;7392;52.078;11.650;2023-07-24T06:39:48;1.73;;;1.63;;
14611;SDS011;7392;52.078;11.650;2023-07-24T06:42:16;2.33;;;1.90;;
14611;SDS011;7392;52.078;11.650;2023-07-24T06:44:43;2.03;;;1.83;;
14611;SDS011;7392;52.078;11.650;2023-07-24T06:47:11;2.00;;;1.80;;
14611;SDS011;7392;52.078;11.650;2023-07-24T06:49:39;1.83;;;1.73;;
14611;SDS011;7392;52.078;11.650;2023-07-24T06:52:07;1.70;;;1.60;;
14611;SDS011;7392;52.078;11.650;2023-07-24T06:54:34;2.00;;;1.57;;
14611;SDS011;7392;52.078;11.650;2023-07-24T06:57:04;1.70;;;1.60;;
14611;SDS011;7392;52.078;11.650;2023-07-24T06:59:32;4.13;;;1.83;;
14611;SDS011;7392;52.078;11.650;2023-07-24T07:02:00;2.23;;;1.87;;
14611;SDS011;7392;52.078;11.650;2023-07-24T07:04:27;1.97;;;1.70;;
14611;SDS011;7392;52.078;11.650;2023-07-24T07:06:55;1.83;;;1.73;;
14611;SDS011;7392;52.078;11.650;2023-07-24T07:09:23;1.70;;;1.60;;
14611;SDS011;7392;52.078;11.650;2023-07-24T07:11:51;2.60;;;1.90;;
14611;SDS011;7392;52.078;11.650;2023-07-24T07:14:20;2.00;;;1.63;;
14611;SDS011;7392;52.078;11.650;2023-07-24T07:16:47;2.00;;;1.73;;
14611;SDS011;7392;52.078;11.650;2023-07-24T07:19:15;2.33;;;1.83;;
14611;SDS011;7392;52.078;11.650;2023-07-24T07:21:43;1.97;;;1.70;;
14611;SDS011;7392;52.078;11.650;2023-07-24T07:24:11;2.47;;;1.83;;
14611;SDS011;7392;52.078;11.650;2023-07-24T07:26:39;2.20;;;1.93;;
14611;SDS011;7392;52.078;11.650;2023-07-24T07:29:06;1.97;;;1.77;;
14611;SDS011;7392;52.078;11.650;2023-07-24T07:31:35;2.10;;;2.00;;
14611;SDS011;7392;52.078;11.650;2023-07-24T07:34:03;2.30;;;2.10;;
14611;SDS011;7392;52.078;11.650;2023-07-24T07:36:31;3.40;;;1.77;;
14611;SDS011;7392;52.078;11.650;2023-07-24T07:49:00;2.30;;;2.03;;
14611;SDS011;7392;52.078;11.650;2023-07-24T07:51:28;2.87;;;2.57;;
14611;SDS011;7392;52.078;11.650;2023-07-24T07:53:56;2.23;;;2.00;;
14611;SDS011;7392;52.078;11.650;2023-07-24T07:56:23;1.70;;;1.60;;
14611;SDS011;7392;52.078;11.650;2023-07-24T07:58:52;2.77;;;2.00;;
14611;SDS011;7392;52.078;11.650;2023-07-24T08:01:20;3.07;;;2.37;;
14611;SDS011;7392;52.078;11.650;2023-07-24T08:03:48;3.33;;;2.30;;
14611;SDS011;7392;52.078;11.650;2023-07-24T08:06:17;2.67;;;2.10;;
14611;SDS011;7392;52.078;11.650;2023-07-24T08:08:45;3.53;;;2.07;;
14611;SDS011;7392;52.078;11.650;2023-07-24T08:11:13;2.53;;;2.20;;
14611;SDS011;7392;52.078;11.650;2023-07-24T08:13:41;2.60;;;2.40;;
14611;SDS011;7392;52.078;11.650;2023-07-24T08:16:12;3.03;;;2.00;;
14611;SDS011;7392;52.078;11.650;2023-07-24T08:18:44;2.27;;;2.07;;
14611;SDS011;7392;52.078;11.650;2023-07-24T08:21:13;3.60;;;2.40;;
14611;SDS011;7392;52.078;11.650;2023-07-24T08:23:42;3.50;;;2.03;;
14611;SDS011;7392;52.078;11.650;2023-07-24T08:26:10;2.83;;;1.90;;
14611;SDS011;7392;52.078;11.650;2023-07-24T08:28:38;3.97;;;2.30;;
14611;SDS011;7392;52.078;11.650;2023-07-24T08:31:08;3.50;;;2.50;;
14611;SDS011;7392;52.078;11.650;2023-07-24T08:33:36;3.67;;;2.20;;
14611;SDS011;7392;52.078;11.650;2023-07-24T08:36:05;2.70;;;2.50;;
14611;SDS011;7392;52.078;11.650;2023-07-24T08:38:33;2.97;;;2.37;;
14611;SDS011;7392;52.078;11.650;2023-07-24T08:41:04;2.40;;;2.20;;
14611;SDS011;7392;52.078;11.650;2023-07-24T08:43:33;2.47;;;2.27;;
14611;SDS011;7392;52.078;11.650;2023-07-24T08:46:02;2.22;;;1.88;;
14611;SDS011;7392;52.078;11.650;2023-07-24T08:48:32;2.93;;;2.40;;
14611;SDS011;7392;52.078;11.650;2023-07-24T08:51:02;3.53;;;2.30;;
14611;SDS011;7392;52.078;11.650;2023-07-24T08:53:31;2.40;;;2.20;;
14611;SDS011;7392;52.078;11.650;2023-07-24T08:56:03;2.63;;;2.20;;
14611;SDS011;7392;52.078;11.650;2023-07-24T08:58:32;4.00;;;2.70;;
14611;SDS011;7392;52.078;11.650;2023-07-24T09:01:01;2.58;;;2.22;;
14611;SDS011;7392;52.078;11.650;2023-07-24T09:03:30;2.47;;;2.17;;
14611;SDS011;7392;52.078;11.650;2023-07-24T09:05:58;2.70;;;2.50;;
14611;SDS011;7392;52.078;11.650;2023-07-24T09:08:28;2.80;;;2.30;;
14611;SDS011;7392;52.078;11.650;2023-07-24T09:10:56;3.05;;;2.75;;
14611;SDS011;7392;52.078;11.650;2023-07-24T09:13:26;2.97;;;2.67;;
14611;SDS011;7392;52.078;11.650;2023-07-24T09:15:54;3.40;;;2.85;;
14611;SDS011;7392;52.078;11.650;2023-07-24T09:18:22;4.85;;;3.00;;
14611;SDS011;7392;52.078;11.650;2023-07-24T09:20:50;3.50;;;3.05;;
14611;SDS011;7392;52.078;11.650;2023-07-24T09:23:25;3.15;;;2.85;;
14611;SDS011;7392;52.078;11.650;2023-07-24T09:25:54;3.92;;;3.28;;
14611;SDS011;7392;52.078;11.650;2023-07-24T09:28:22;6.05;;;3.15;;
14611;SDS011;7392;52.078;11.650;2023-07-24T09:30:54;5.07;;;3.60;;
14611;SDS011;7392;52.078;11.650;2023-07-24T09:33:33;4.88;;;3.22;;
14611;SDS011;7392;52.078;11.650;2023-07-24T09:36:02;3.83;;;3.10;;
14611;SDS011;7392;52.078;11.650;2023-07-24T09:38:31;6.30;;;3.53;;
14611;SDS011;7392;52.078;11.650;2023-07-24T09:41:00;8.77;;;3.72;;
14611;SDS011;7392;52.078;11.650;2023-07-24T09:43:29;7.45;;;3.72;;
14611;SDS011;7392;52.078;11.650;2023-07-24T09:46:08;8.10;;;3.35;;
14611;SDS011;7392;52.078;11.650;2023-07-24T09:48:37;5.65;;;3.30;;
14611;SDS011;7392;52.078;11.650;2023-07-24T09:51:25;5.95;;;3.88;;
14611;SDS011;7392;52.078;11.650;2023-07-24T09:53:55;4.25;;;3.55;;
14611;SDS011;7392;52.078;11.650;2023-07-24T09:56:28;4.88;;;3.22;;
14611;SDS011;7392;52.078;11.650;2023-07-24T09:59:15;4.43;;;3.55;;
14611;SDS011;7392;52.078;11.650;2023-07-24T10:01:45;4.32;;;3.25;;
14611;SDS011;7392;52.078;11.650;2023-07-24T10:04:14;4.95;;;3.60;;
14611;SDS011;7392;52.078;11.650;2023-07-24T10:06:42;5.13;;;3.85;;
14611;SDS011;7392;52.078;11.650;2023-07-24T10:09:11;5.47;;;3.35;;
14611;SDS011;7392;52.078;11.650;2023-07-24T10:11:40;3.50;;;3.20;;
14611;SDS011;7392;52.078;11.650;2023-07-24T10:14:08;4.70;;;2.95;;
14611;SDS011;7392;52.078;11.650;2023-07-24T10:16:36;3.97;;;3.22;;
14611;SDS011;7392;52.078;11.650;2023-07-24T10:19:13;4.97;;;3.53;;
14611;SDS011;7392;52.078;11.650;2023-07-24T10:21:44;5.68;;;3.95;;
14611;SDS011;7392;52.078;11.650;2023-07-24T10:24:13;5.38;;;3.38;;
14611;SDS011;7392;52.078;11.650;2023-07-24T10:26:56;4.68;;;3.55;;
14611;SDS011;7392;52.078;11.650;2023-07-24T10:29:24;4.70;;;3.25;;
14611;SDS011;7392;52.078;11.650;2023-07-24T10:31:53;4.70;;;3.33;;
14611;SDS011;7392;52.078;11.650;2023-07-24T10:34:23;3.58;;;3.15;;
14611;SDS011;7392;52.078;11.650;2023-07-24T10:36:50;4.80;;;3.50;;
14611;SDS011;7392;52.078;11.650;2023-07-24T10:39:18;4.07;;;3.65;;
14611;SDS011;7392;52.078;11.650;2023-07-24T10:41:47;3.75;;;3.33;;
14611;SDS011;7392;52.078;11.650;2023-07-24T10:44:15;3.40;;;3.10;;
14611;SDS011;7392;52.078;11.650;2023-07-24T10:46:43;3.72;;;2.78;;
14611;SDS011;7392;52.078;11.650;2023-07-24T10:49:13;3.13;;;2.30;;
14611;SDS011;7392;52.078;11.650;2023-07-24T10:51:42;2.53;;;2.30;;
14611;SDS011;7392;52.078;11.650;2023-07-24T10:54:10;3.47;;;2.38;;
14611;SDS011;7392;52.078;11.650;2023-07-24T10:56:38;2.58;;;2.38;;
14611;SDS011;7392;52.078;11.650;2023-07-24T10:59:05;2.67;;;2.47;;
14611;SDS011;7392;52.078;11.650;2023-07-24T11:01:33;2.95;;;2.65;;
14611;SDS011;7392;52.078;11.650;2023-07-24T11:04:02;2.45;;;2.25;;
14611;SDS011;7392;52.078;11.650;2023-07-24T11:06:30;3.53;;;2.30;;
14611;SDS011;7392;52.078;11.650;2023-07-24T11:08:59;2.80;;;2.20;;
14611;SDS011;7392;52.078;11.650;2023-07-24T11:11:28;2.28;;;2.08;;
14611;SDS011;7392;52.078;11.650;2023-07-24T11:13:57;2.53;;;2.20;;
14611;SDS011;7392;52.078;11.650;2023-07-24T11:16:26;2.80;;;2.22;;
14611;SDS011;7392;52.078;11.650;2023-07-24T11:18:56;2.40;;;2.00;;
14611;SDS011;7392;52.078;11.650;2023-07-24T11:21:24;2.33;;;2.13;;
14611;SDS011;7392;52.078;11.650;2023-07-24T11:23:53;4.18;;;2.30;;
14611;SDS011;7392;52.078;11.650;2023-07-24T11:26:23;3.22;;;2.35;;
14611;SDS011;7392;52.078;11.650;2023-07-24T11:28:53;3.38;;;1.92;;
14611;SDS011;7392;52.078;11.650;2023-07-24T11:31:21;2.40;;;2.20;;
14611;SDS011;7392;52.078;11.650;2023-07-24T11:33:49;2.35;;;2.00;;
14611;SDS011;7392;52.078;11.650;2023-07-24T11:36:19;2.60;;;2.35;;
14611;SDS011;7392;52.078;11.650;2023-07-24T11:38:48;2.20;;;1.85;;
14611;SDS011;7392;52.078;11.650;2023-07-24T11:41:16;2.25;;;2.05;;
14611;SDS011;7392;52.078;11.650;2023-07-24T11:43:46;2.22;;;2.00;;
14611;SDS011;7392;52.078;11.650;2023-07-24T11:46:22;2.35;;;2.15;;
14611;SDS011;7392;52.078;11.650;2023-07-24T11:48:51;2.15;;;1.95;;
14611;SDS011;7392;52.078;11.650;2023-07-24T11:51:22;3.22;;;2.17;;
14611;SDS011;7392;52.078;11.650;2023-07-24T11:53:52;3.42;;;2.10;;
14611;SDS011;7392;52.078;11.650;2023-07-24T11:56:19;2.58;;;1.88;;
14611;SDS011;7392;52.078;11.650;2023-07-24T11:58:49;2.25;;;1.90;;
14611;SDS011;7392;52.078;11.650;2023-07-24T12:01:17;2.22;;;2.03;;
14611;SDS011;7392;52.078;11.650;2023-07-24T12:03:45;2.10;;;1.90;;
14611;SDS011;7392;52.078;11.650;2023-07-24T12:06:14;2.13;;;1.92;;
14611;SDS011;7392;52.078;11.650;2023-07-24T12:08:43;2.35;;;2.05;;
14611;SDS011;7392;52.078;11.650;2023-07-24T12:11:17;2.75;;;2.22;;
14611;SDS011;7392;52.078;11.650;2023-07-24T12:13:44;2.78;;;2.10;;
14611;SDS011;7392;52.078;11.650;2023-07-24T12:16:13;2.30;;;2.10;;
14611;SDS011;7392;52.078;11.650;2023-07-24T12:18:41;2.40;;;2.20;;
14611;SDS011;7392;52.078;11.650;2023-07-24T12:21:09;2.15;;;1.98;;
14611;SDS011;7392;52.078;11.650;2023-07-24T12:23:37;3.30;;;1.95;;
14611;SDS011;7392;52.078;11.650;2023-07-24T12:26:05;2.25;;;2.00;;
14611;SDS011;7392;52.078;11.650;2023-07-24T12:28:33;2.78;;;1.80;;
14611;SDS011;7392;52.078;11.650;2023-07-24T12:31:01;6.15;;;2.10;;
14611;SDS011;7392;52.078;11.650;2023-07-24T12:33:32;2.83;;;2.00;;
14611;SDS011;7392;52.078;11.650;2023-07-24T12:36:00;2.13;;;1.92;;
14611;SDS011;7392;52.078;11.650;2023-07-24T12:38:28;2.10;;;2.00;;
14611;SDS011;7392;52.078;11.650;2023-07-24T12:40:56;3.13;;;2.20;;
14611;SDS011;7392;52.078;11.650;2023-07-24T12:43:24;2.50;;;2.30;;
14611;SDS011;7392;52.078;11.650;2023-07-24T12:45:52;3.75;;;2.50;;
14611;SDS011;7392;52.078;11.650;2023-07-24T12:48:19;2.70;;;2.50;;
14611;SDS011;7392;52.078;11.650;2023-07-24T12:50:49;3.17;;;2.60;;
14611;SDS011;7392;52.078;11.650;2023-07-24T12:53:17;4.05;;;2.80;;
14611;SDS011;7392;52.078;11.650;2023-07-24T12:55:51;4.18;;;3.22;;
14611;SDS011;7392;52.078;11.650;2023-07-24T12:58:19;5.05;;;3.30;;
14611;SDS011;7392;52.078;11.650;2023-07-24T13:00:47;3.05;;;2.75;;
14611;SDS011;7392;52.078;11.650;2023-07-24T13:03:15;3.38;;;3.03;;
14611;SDS011;7392;52.078;11.650;2023-07-24T13:05:43;3.60;;;3.25;;
14611;SDS011;7392;52.078;11.650;2023-07-24T13:08:13;4.30;;;3.90;;
14611;SDS011;7392;52.078;11.650;2023-07-24T13:10:44;4.05;;;3.65;;
14611;SDS011;7392;52.078;11.650;2023-07-24T13:13:12;3.95;;;3.53;;
14611;SDS011;7392;52.078;11.650;2023-07-24T13:15:40;5.53;;;4.30;;
14611;SDS011;7392;52.078;11.650;2023-07-24T13:18:07;5.10;;;4.07;;
14611;SDS011;7392;52.078;11.650;2023-07-24T13:20:52;5.15;;;4.07;;
14611;SDS011;7392;52.078;11.650;2023-07-24T13:23:21;3.58;;;3.20;;
14611;SDS011;7392;52.078;11.650;2023-07-24T13:25:50;5.25;;;3.50;;
14611;SDS011;7392;52.078;11.650;2023-07-24T13:28:19;3.97;;;3.58;;
14611;SDS011;7392;52.078;11.650;2023-07-24T13:30:46;3.55;;;2.92;;
14611;SDS011;7392;52.078;11.650;2023-07-24T13:33:14;3.97;;;3.50;;
14611;SDS011;7392;52.078;11.650;2023-07-24T13:35:42;4.40;;;3.60;;
14611;SDS011;7392;52.078;11.650;2023-07-24T13:38:10;3.72;;;3.40;;
14611;SDS011;7392;52.078;11.650;2023-07-24T13:40:39;3.67;;;3.28;;
14611;SDS011;7392;52.078;11.650;2023-07-24T13:43:07;4.35;;;3.28;;
14611;SDS011;7392;52.078;11.650;2023-07-24T13:45:35;2.72;;;2.53;;
14611;SDS011;7392;52.078;11.650;2023-07-24T13:48:03;3.20;;;2.90;;
14611;SDS011;7392;52.078;11.650;2023-07-24T13:50:32;3.97;;;2.90;;
14611;SDS011;7392;52.078;11.650;2023-07-24T13:52:59;4.45;;;3.50;;
14611;SDS011;7392;52.078;11.650;2023-07-24T13:55:27;3.95;;;3.38;;
14611;SDS011;7392;52.078;11.650;2023-07-24T13:57:57;3.13;;;2.83;;
14611;SDS011;7392;52.078;11.650;2023-07-24T14:00:24;3.40;;;3.10;;
14611;SDS011;7392;52.078;11.650;2023-07-24T14:02:53;3.47;;;3.17;;
14611;SDS011;7392;52.078;11.650;2023-07-24T14:05:20;3.45;;;3.15;;
14611;SDS011;7392;52.078;11.650;2023-07-24T14:07:48;3.33;;;2.88;;
14611;SDS011;7392;52.078;11.650;2023-07-24T14:10:16;3.30;;;2.90;;
14611;SDS011;7392;52.078;11.650;2023-07-24T14:12:44;3.63;;;3.30;;
14611;SDS011;7392;52.078;11.650;2023-07-24T14:15:14;3.58;;;2.97;;
14611;SDS011;7392;52.078;11.650;2023-07-24T14:17:42;2.75;;;2.55;;
14611;SDS011;7392;52.078;11.650;2023-07-24T14:20:10;3.13;;;2.88;;
14611;SDS011;7392;52.078;11.650;2023-07-24T14:22:38;2.78;;;2.58;;
14611;SDS011;7392;52.078;11.650;2023-07-24T14:25:06;3.60;;;2.83;;
14611;SDS011;7392;52.078;11.650;2023-07-24T14:27:34;3.00;;;2.65;;
14611;SDS011;7392;52.078;11.650;2023-07-24T14:30:02;3.25;;;2.95;;
14611;SDS011;7392;52.078;11.650;2023-07-24T14:32:32;3.35;;;3.05;;
14611;SDS011;7392;52.078;11.650;2023-07-24T14:35:00;4.40;;;3.00;;
14611;SDS011;7392;52.078;11.650;2023-07-24T14:37:28;3.47;;;2.90;;
14611;SDS011;7392;52.078;11.650;2023-07-24T14:39:57;4.35;;;3.22;;
14611;SDS011;7392;52.078;11.650;2023-07-24T14:42:24;3.80;;;3.00;;
14611;SDS011;7392;52.078;11.650;2023-07-24T14:44:52;3.53;;;3.22;;
14611;SDS011;7392;52.078;11.650;2023-07-24T14:47:20;4.30;;;3.85;;
14611;SDS011;7392;52.078;11.650;2023-07-24T14:49:49;3.72;;;3.42;;
14611;SDS011;7392;52.078;11.650;2023-07-24T14:52:17;3.78;;;3.05;;
14611;SDS011;7392;52.078;11.650;2023-07-24T14:54:45;3.42;;;3.10;;
14611;SDS011;7392;52.078;11.650;2023-07-24T14:57:13;3.75;;;3.30;;
14611;SDS011;7392;52.078;11.650;2023-07-24T14:59:51;3.75;;;3.35;;
14611;SDS011;7392;52.078;11.650;2023-07-24T15:02:19;4.00;;;3.60;;
14611;SDS011;7392;52.078;11.650;2023-07-24T15:04:47;4.32;;;3.83;;
14611;SDS011;7392;52.078;11.650;2023-07-24T15:07:16;3.70;;;3.35;;